Charlotte, North Carolina
Current Conditions -  °F | °C
As of 9:52 PM on Thursday 27 Nov 2014 (Local Time) from KCLT Reporting Station
Clear Clear  
Wind Chill: 30°   Ceiling: Unl
Heat Index: 37°   Visibility: 10mi
Dew Point: 23°   Wind: 9mph
Humidity: 57%   Direction: 320°NW
Pressure: 30.27"   Gusts: NA
Location:  35.22°N, 80.84°W
Report Text: KCLT 280252Z 32008KT 10SM CLR 03/M05 A3027 RMK AO2 SLP252 T00281050 50012
Loading
Personal Weather Stations






























Interactive Weather Map New forecast layout! Learn more

10-Day Weather Forecast

Advertisements
Track Severe Weather on mobile